createdAt,value
2022-09-02T00:09:08.496Z,0.50
2022-09-02T00:19:31.223Z,0.70
2022-09-02T00:29:53.355Z,0.55
2022-09-02T00:40:19.727Z,0.60
2022-09-02T00:50:41.408Z,0.60
2022-09-02T01:01:04.203Z,0.80
2022-09-02T01:11:32.263Z,0.90
2022-09-02T01:21:56.091Z,0.75
2022-09-02T01:32:18.516Z,1.20
2022-09-02T01:42:44.180Z,0.90
2022-09-02T01:53:05.954Z,0.90
2022-09-02T02:03:28.593Z,1.10
2022-09-02T02:13:50.826Z,1.10
2022-09-02T02:24:12.536Z,0.93
2022-09-02T02:34:35.089Z,1.15
2022-09-02T02:44:56.622Z,1.17
2022-09-02T03:05:40.806Z,0.90
2022-09-02T03:16:05.156Z,1.25
2022-09-02T03:26:26.735Z,1.45
2022-09-02T03:47:09.887Z,1.30
2022-09-02T03:57:32.071Z,1.20
2022-09-02T04:07:56.821Z,1.40
2022-09-02T04:18:18.447Z,1.40
2022-09-02T04:49:23.522Z,1.43
2022-09-02T04:59:45.341Z,1.23
2022-09-02T05:10:07.894Z,1.35
2022-09-02T05:20:29.511Z,1.52
2022-09-02T05:41:17.610Z,1.50
2022-09-02T05:51:43.083Z,1.75
2022-09-02T06:02:04.717Z,1.77
2022-09-02T06:22:48.601Z,2.17
2022-09-02T06:33:11.362Z,2.10
2022-09-02T06:43:42.267Z,2.50
2022-09-02T06:54:06.969Z,2.55
2022-09-02T07:04:47.343Z,2.88
2022-09-02T07:15:10.391Z,2.80
2022-09-02T07:25:32.257Z,5.20
2022-09-02T07:35:53.981Z,4.15
2022-09-02T07:46:15.771Z,3.47
2022-09-02T07:56:37.730Z,3.10
2022-09-02T08:06:59.241Z,2.90
2022-09-02T08:17:20.870Z,2.72
2022-09-02T08:27:42.402Z,2.53
2022-09-02T08:38:03.945Z,2.45
2022-09-02T08:48:36.312Z,2.28
2022-09-02T08:58:58.156Z,2.60
2022-09-02T09:09:31.701Z,3.42
2022-09-02T09:19:58.573Z,3.42
2022-09-02T09:30:20.162Z,3.40
2022-09-02T09:40:41.929Z,3.35
2022-09-02T09:51:03.890Z,4.97
2022-09-02T10:01:30.315Z,4.55
2022-09-02T10:11:57.655Z,4.18
2022-09-02T10:22:58.743Z,4.10
2022-09-02T10:33:25.041Z,3.38
2022-09-02T10:43:57.366Z,3.22
2022-09-02T10:54:19.102Z,2.88
2022-09-02T11:04:51.806Z,2.40
2022-09-02T11:15:23.318Z,1.50
2022-09-02T11:25:52.121Z,1.80
2022-09-02T11:36:13.806Z,0.95
2022-09-02T11:47:03.614Z,0.98
2022-09-02T11:57:25.953Z,0.80
2022-09-02T12:07:49.414Z,0.80
2022-09-02T12:18:31.008Z,0.90
2022-09-02T12:28:54.115Z,1.15
2022-09-02T12:39:25.579Z,0.82
2022-09-02T12:50:00.595Z,0.90
2022-09-02T13:00:47.187Z,0.80
2022-09-02T13:11:41.010Z,0.80
2022-09-02T13:22:20.647Z,0.95
2022-09-02T13:32:43.327Z,1.08
2022-09-02T13:43:18.371Z,1.00
2022-09-02T13:53:53.924Z,2.10
2022-09-02T14:04:21.267Z,0.90
2022-09-02T14:14:43.142Z,0.80
2022-09-02T14:25:16.423Z,1.00
2022-09-02T14:35:37.990Z,0.90
2022-09-02T14:46:06.696Z,1.00
2022-09-02T14:57:04.994Z,0.82
2022-09-02T15:07:27.100Z,0.88
2022-09-02T15:17:48.644Z,0.70
2022-09-02T15:28:11.045Z,1.10
2022-09-02T15:38:32.922Z,0.80
2022-09-02T15:48:59.063Z,0.90
2022-09-02T15:59:24.921Z,0.90
2022-09-02T16:09:46.505Z,0.68
2022-09-02T16:20:08.473Z,0.68
2022-09-02T16:30:30.276Z,0.88
2022-09-02T16:40:55.779Z,0.70
2022-09-02T16:51:18.298Z,0.80
2022-09-02T17:01:40.518Z,0.70
2022-09-02T17:12:02.326Z,0.90
2022-09-02T17:22:23.864Z,1.13
2022-09-02T17:32:51.927Z,0.70
2022-09-02T17:43:17.335Z,0.90
2022-09-02T17:53:44.215Z,0.90
2022-09-02T18:04:20.713Z,1.02
2022-09-02T18:14:50.403Z,1.10
2022-09-02T18:25:35.500Z,1.13
2022-09-02T18:36:17.211Z,1.00
2022-09-02T18:46:48.765Z,0.82
2022-09-02T18:57:10.676Z,1.08
2022-09-02T19:07:51.198Z,0.93
2022-09-02T19:18:12.750Z,0.90
2022-09-02T19:28:34.535Z,1.05
2022-09-02T19:38:56.633Z,1.38
2022-09-02T19:49:18.188Z,1.20
2022-09-02T19:59:39.754Z,1.10
2022-09-02T20:10:01.637Z,0.90
2022-09-02T20:20:25.345Z,0.80
2022-09-02T20:30:56.468Z,0.95
2022-09-02T20:41:26.857Z,1.20
2022-09-02T20:51:51.304Z,0.97
2022-09-02T21:02:14.936Z,1.10
2022-09-02T21:12:43.414Z,0.95
2022-09-02T21:23:13.752Z,1.30
2022-09-02T21:33:35.767Z,0.90
2022-09-02T21:44:33.942Z,0.95
2022-09-02T21:55:46.386Z,0.80
2022-09-02T22:06:28.546Z,0.80
2022-09-02T22:17:01.594Z,1.00
2022-09-02T22:27:41.204Z,0.93
2022-09-02T22:38:25.605Z,1.00
2022-09-02T22:49:17.490Z,1.15
2022-09-02T22:59:51.732Z,0.85
2022-09-02T23:10:22.830Z,1.05
2022-09-02T23:21:02.213Z,1.20
2022-09-02T23:32:03.140Z,1.10
2022-09-02T23:42:25.675Z,0.80
2022-09-02T23:52:57.640Z,1.20
